Hovedside
METAR-TAF:

METAR-TAF

Lufthavner :

Kajana, Finland

Kajana lufthavn

breddegrad: 64-17N, lengdegrad: 027-41E, høyde over havet: 143 m

Gjeldene værobservasjon

Denne rapporten ble laget for 27 minutter siden, klokken 04:20 UTC
Vind 3 kt fra Øst-sørøst
Temperatur 0°C
Luftfuktighet 69%
Trykk 1008 hPa
Sikt 10 km eller mer
ingen skyer under 1500 m og ingen bygeskyer

METAR: EFKI 250420Z AUTO 11003KT CAVOK M00/M05 Q1008

Tid: 07:47 (04:47 UTC)

Varsel

Denne rapporten ble laget for 2 timer og 9 minutter siden, klokken 02:38 UTC
Varsel gyldig fra 25. klokken 03 UTC til 25. klokken 12 UTC
Vind 7 kt fra Øst-sørøst
Sikt 10 km eller mer
Spredte skyer i en høyde av 4500 ft
Brutte skyer i en høyde av 8000 ft
Midlertidig
fra 25. klokken 10 UTC til 25. klokken 12 UTC
Sikt: 7000 m
Spredte skyer i en høyde av 3000 ft, Bygeskyer.
lette regnbyger

TAF: EFKI 250238Z 2503/2512 12007KT 9999 SCT045 BKN080 TEMPO 2510/2512 7000 -SHRA SCT030CB

Værobservasjoner og værvarsel for over 4000 flyplasser (METAR- og TAF-rapporter).

Tilgjengelige stasjoner er representert av de røde og gule prikkene på kartet.

Hold musepekeren over prikken for å se navnet på stasjonen.

Klikk så for å se værobservasjoner og -varsler.

For å forandre kartet kan du klikke på den grønne knappen med svart kryss for å zoome inn, på den grønne knappen med strek for å zoome ut, eller på de grønne pilene for å se tilstøtende kart.


METAR-TAF: